FDA205 RJAF-RJFF
Flight info
| Callsign | FDA205 |
|---|---|
| Flight time | N/A |
| Altitude | 32000 |
| Route | MBE Y12 TOLUM Y20 KIRIN |
| Aircraft | E75L/M-SDFGILORVWY/H |
Departure
| Time | 2026-04-12 11:02 |
|---|---|
| Airport | Shinshu-Matsumoto Airport (RJAF) |
Arrival
| Time | N/A |
|---|---|
| Airport | Fukuoka Airport (RJFF) |
| Time | Latitude | Longitude | Altitude | Speed | Heading |
|---|---|---|---|---|---|
| 2026-04-12 10:14 | 36.16402 | 137.92573 | 2168 ft | 0 kts | 81° |
| 2026-04-12 10:55 | 36.16399 | 137.92554 | 2164 ft | 4 kts | 78° |
| 2026-04-12 10:56 | 36.16391 | 137.92523 | 2160 ft | 4 kts | 52° |
| 2026-04-12 10:56 | 36.16376 | 137.92513 | 2163 ft | 0 kts | 359° |
| 2026-04-12 10:58 | 36.16384 | 137.92513 | 2161 ft | 4 kts | 358° |
| 2026-04-12 10:58 | 36.16423 | 137.92493 | 2167 ft | 9 kts | 301° |
| 2026-04-12 10:58 | 36.16421 | 137.92398 | 2164 ft | 11 kts | 260° |
| 2026-04-12 10:59 | 36.16391 | 137.92330 | 2173 ft | 9 kts | 199° |
| 2026-04-12 10:59 | 36.16317 | 137.92335 | 2170 ft | 11 kts | 172° |
| 2026-04-12 10:59 | 36.16239 | 137.92350 | 2173 ft | 14 kts | 171° |
| 2026-04-12 10:59 | 36.16141 | 137.92369 | 2181 ft | 15 kts | 171° |
| 2026-04-12 11:00 | 36.16033 | 137.92391 | 2208 ft | 16 kts | 171° |
| 2026-04-12 11:00 | 36.15927 | 137.92412 | 2211 ft | 15 kts | 171° |
| 2026-04-12 11:00 | 36.15824 | 137.92433 | 2213 ft | 15 kts | 171° |
| 2026-04-12 11:00 | 36.15749 | 137.92466 | 2214 ft | 0 kts | 186° |
| 2026-04-12 11:01 | 36.15741 | 137.92458 | 2216 ft | 3 kts | 236° |
| 2026-04-12 11:01 | 36.15745 | 137.92433 | 2214 ft | 4 kts | 312° |
| 2026-04-12 11:01 | 36.15776 | 137.92430 | 2215 ft | 6 kts | 13° |
| 2026-04-12 11:01 | 36.15835 | 137.92431 | 2215 ft | 11 kts | 352° |
| 2026-04-12 11:02 | 36.16101 | 137.92380 | 2206 ft | 75 kts | 351° |
| 2026-04-12 11:02 | 36.16848 | 137.92233 | 2184 ft | 141 kts | 352° |
| 2026-04-12 11:02 | 36.17913 | 137.92050 | 2681 ft | 159 kts | 353° |
| 2026-04-12 11:02 | 36.19017 | 137.91878 | 3570 ft | 166 kts | 354° |
| 2026-04-12 11:03 | 36.20280 | 137.91793 | 4001 ft | 193 kts | 358° |
| 2026-04-12 11:03 | 36.21697 | 137.91754 | 4689 ft | 212 kts | 359° |
| 2026-04-12 11:03 | 36.23239 | 137.91721 | 5401 ft | 232 kts | 358° |
| 2026-04-12 11:03 | 36.24943 | 137.91674 | 6006 ft | 256 kts | 358° |
| 2026-04-12 11:04 | 36.26791 | 137.91622 | 6716 ft | 275 kts | 357° |
| 2026-04-12 11:04 | 36.28718 | 137.91556 | 7703 ft | 277 kts | 356° |
| 2026-04-12 11:04 | 36.30636 | 137.91496 | 8848 ft | 275 kts | 356° |
| 2026-04-12 11:04 | 36.32554 | 137.91429 | 9909 ft | 277 kts | 357° |
| 2026-04-12 11:05 | 36.34493 | 137.91366 | 10820 ft | 281 kts | 358° |
| 2026-04-12 11:05 | 36.36415 | 137.91906 | 11720 ft | 292 kts | 24° |
| 2026-04-12 11:05 | 36.37984 | 137.93574 | 12603 ft | 308 kts | 51° |
| 2026-04-12 11:05 | 36.38826 | 137.96079 | 13496 ft | 325 kts | 78° |
| 2026-04-12 11:06 | 36.38714 | 137.98919 | 14345 ft | 338 kts | 105° |
| 2026-04-12 11:06 | 36.37612 | 138.01496 | 15240 ft | 344 kts | 132° |
| 2026-04-12 11:06 | 36.35739 | 138.03321 | 16066 ft | 345 kts | 159° |
| 2026-04-12 11:06 | 36.33447 | 138.04032 | 16918 ft | 338 kts | 185° |
| 2026-04-12 11:07 | 36.31185 | 138.03528 | 17771 ft | 328 kts | 208° |
| 2026-04-12 11:07 | 36.29036 | 138.02535 | 18581 ft | 336 kts | 202° |
| 2026-04-12 11:07 | 36.26920 | 138.01418 | 19304 ft | 325 kts | 223° |
| 2026-04-12 11:07 | 36.25226 | 137.99600 | 20120 ft | 322 kts | 228° |
| 2026-04-12 11:08 | 36.23480 | 137.97747 | 20557 ft | 340 kts | 224° |